Time;durP1;ratioP1;P1;durP2;ratioP2;P2;SDS_P1;SDS_P2;PMS_P1;PMS_P2;Temp;Humidity;BMP_temperature;BMP_pressure;BME280_temperature;BME280_humidity;BME280_pressure;Samples;Min_cycle;Max_cycle;Signal;HPM_P1;HPM_P2
2024/04/18 00:00:45;;;;;;;26.55;25.15;;;;;;;;;;5498653;25;20016;-68
2024/04/18 00:03:30;;;;;;;28.70;27.13;;;;;;;;;;5469643;26;20006;-67
2024/04/18 00:06:16;;;;;;;27.17;25.75;;;;;;;;;;5493955;25;20091;-67
2024/04/18 00:09:02;;;;;;;29.58;28.02;;;;;;;;;;5492342;25;20038;-67
2024/04/18 00:11:47;;;;;;;29.73;28.15;;;;;;;;;;5492572;25;20010;-67
2024/04/18 00:14:33;;;;;;;26.40;25.00;;;;;;;;;;5499861;25;19997;-68
2024/04/18 00:17:18;;;;;;;28.30;26.85;;;;;;;;;;5498094;25;20009;-67
2024/04/18 00:20:05;;;;;;;29.75;28.20;;;;;;;;;;5488583;25;20017;-68
2024/04/18 00:22:52;;;;;;;26.25;24.85;;;;;;;;;;5496046;25;20348;-68
2024/04/18 00:25:38;;;;;;;27.48;26.00;;;;;;;;;;5485965;26;20002;-67
2024/04/18 00:28:24;;;;;;;25.58;24.23;;;;;;;;;;5497533;25;20475;-68
2024/04/18 00:31:09;;;;;;;27.42;25.95;;;;;;;;;;5494500;25;20032;-68
2024/04/18 00:33:55;;;;;;;26.33;24.92;;;;;;;;;;5474318;25;20024;-68
2024/04/18 00:36:40;;;;;;;27.73;26.23;;;;;;;;;;5498955;25;20006;-68
2024/04/18 00:39:27;;;;;;;24.15;22.85;;;;;;;;;;5500010;25;20009;-68
2024/04/18 00:42:12;;;;;;;26.50;25.10;;;;;;;;;;5500326;25;19998;-67
2024/04/18 00:44:58;;;;;;;25.08;23.75;;;;;;;;;;5508154;25;20001;-68
2024/04/18 00:47:47;;;;;;;25.75;24.35;;;;;;;;;;5505021;25;20425;-65
2024/04/18 00:50:32;;;;;;;27.40;25.92;;;;;;;;;;5499892;25;20094;-67
2024/04/18 00:53:19;;;;;;;27.52;25.95;;;;;;;;;;5498935;25;20029;-67
2024/04/18 00:56:05;;;;;;;26.40;25.00;;;;;;;;;;5465133;25;20312;-67
2024/04/18 00:58:51;;;;;;;27.30;25.80;;;;;;;;;;5502597;25;20115;-67
2024/04/18 01:01:37;;;;;;;26.83;25.42;;;;;;;;;;5500325;25;20020;-67
2024/04/18 01:04:23;;;;;;;29.33;27.73;;;;;;;;;;5498604;25;20071;-67
2024/04/18 01:07:09;;;;;;;26.45;25.05;;;;;;;;;;5501418;25;20096;-68
2024/04/18 01:09:55;;;;;;;31.23;29.63;;;;;;;;;;5502685;25;20430;-68
2024/04/18 01:12:40;;;;;;;31.02;29.35;;;;;;;;;;5502028;25;20610;-68
2024/04/18 01:15:27;;;;;;;30.00;28.27;;;;;;;;;;5500857;25;20013;-68
2024/04/18 01:18:12;;;;;;;30.48;28.88;;;;;;;;;;5496926;25;20017;-68
2024/04/18 01:20:58;;;;;;;30.80;29.20;;;;;;;;;;5499994;25;20697;-68
2024/04/18 01:23:44;;;;;;;29.75;28.20;;;;;;;;;;5497082;25;20006;-68
2024/04/18 01:26:29;;;;;;;28.98;27.38;;;;;;;;;;5473104;25;20020;-68
2024/04/18 01:29:15;;;;;;;29.52;28.00;;;;;;;;;;5502020;25;20022;-68
2024/04/18 01:32:00;;;;;;;28.48;26.98;;;;;;;;;;5499065;25;20054;-68
2024/04/18 01:34:46;;;;;;;28.70;27.15;;;;;;;;;;5495749;25;20100;-68
2024/04/18 01:37:32;;;;;;;28.55;26.95;;;;;;;;;;5500635;25;20042;-68
2024/04/18 01:40:17;;;;;;;29.70;28.13;;;;;;;;;;5497231;25;20004;-68
2024/04/18 01:43:03;;;;;;;27.27;25.83;;;;;;;;;;5501258;25;20041;-68
2024/04/18 01:45:49;;;;;;;27.35;25.85;;;;;;;;;;5499918;25;20010;-68
2024/04/18 01:48:34;;;;;;;27.65;26.15;;;;;;;;;;5504495;25;20013;-68
2024/04/18 01:51:20;;;;;;;30.15;28.45;;;;;;;;;;5501617;25;20018;-68
2024/04/18 01:54:05;;;;;;;30.15;28.58;;;;;;;;;;5491326;25;20013;-68
2024/04/18 01:56:51;;;;;;;30.08;28.48;;;;;;;;;;5505172;25;20070;-66
2024/04/18 01:59:37;;;;;;;30.40;28.45;;;;;;;;;;5512049;25;20012;-68
2024/04/18 02:02:23;;;;;;;29.60;27.98;;;;;;;;;;5507745;25;20006;-68
2024/04/18 02:05:09;;;;;;;29.30;27.70;;;;;;;;;;5506423;25;20017;-68
2024/04/18 02:07:54;;;;;;;28.45;26.95;;;;;;;;;;5488959;25;20001;-68
2024/04/18 02:10:42;;;;;;;27.80;26.30;;;;;;;;;;5486411;25;20021;-68
2024/04/18 02:13:28;;;;;;;30.83;29.05;;;;;;;;;;5485578;25;20021;-68
2024/04/18 02:16:13;;;;;;;30.75;29.08;;;;;;;;;;5486115;26;20689;-67
2024/04/18 02:18:59;;;;;;;31.40;29.75;;;;;;;;;;5481194;25;20021;-68
2024/04/18 02:21:45;;;;;;;31.30;29.50;;;;;;;;;;5480600;25;20012;-67
2024/04/18 02:24:31;;;;;;;28.30;26.80;;;;;;;;;;5485466;25;20011;-68
2024/04/18 02:27:17;;;;;;;28.88;27.25;;;;;;;;;;5486515;25;20005;-68
2024/04/18 02:30:05;;;;;;;28.33;26.83;;;;;;;;;;5489873;26;20971;-68
2024/04/18 02:32:50;;;;;;;30.58;28.92;;;;;;;;;;5499234;25;20348;-68
2024/04/18 02:35:36;;;;;;;29.75;28.15;;;;;;;;;;5468996;26;20109;-68
2024/04/18 02:38:21;;;;;;;30.10;28.50;;;;;;;;;;5466541;26;20006;-68
2024/04/18 02:41:08;;;;;;;29.95;28.35;;;;;;;;;;5482699;26;20021;-68
2024/04/18 02:43:54;;;;;;;31.55;29.85;;;;;;;;;;5498375;25;20311;-66
2024/04/18 02:46:40;;;;;;;30.73;29.13;;;;;;;;;;5492389;25;20010;-68
2024/04/18 02:49:25;;;;;;;31.27;29.65;;;;;;;;;;5496248;26;20013;-67
2024/04/18 02:52:11;;;;;;;33.00;31.10;;;;;;;;;;5475437;26;20034;-67
2024/04/18 02:54:56;;;;;;;32.17;30.38;;;;;;;;;;5492379;26;20025;-68
2024/04/18 02:57:42;;;;;;;28.88;27.38;;;;;;;;;;5494178;26;20013;-68
2024/04/18 03:00:28;;;;;;;30.63;29.02;;;;;;;;;;5498013;25;20021;-68
2024/04/18 03:03:14;;;;;;;30.33;28.73;;;;;;;;;;5487476;26;20042;-68
2024/04/18 03:06:01;;;;;;;35.03;33.17;;;;;;;;;;5487558;26;20006;-68
2024/04/18 03:08:47;;;;;;;29.98;28.38;;;;;;;;;;5496991;25;20014;-68
2024/04/18 03:11:32;;;;;;;31.33;29.73;;;;;;;;;;5490105;26;20021;-68
2024/04/18 03:14:18;;;;;;;30.95;29.35;;;;;;;;;;5488969;26;20087;-68
2024/04/18 03:17:04;;;;;;;30.65;29.02;;;;;;;;;;5493971;26;20010;-66
2024/04/18 03:19:49;;;;;;;31.30;29.63;;;;;;;;;;5489559;25;20041;-67
2024/04/18 03:22:40;;;;;;;30.58;28.98;;;;;;;;;;5495588;25;20484;-67
2024/04/18 03:25:25;;;;;;;31.40;29.73;;;;;;;;;;5498998;25;20001;-67
2024/04/18 03:28:11;;;;;;;30.00;28.30;;;;;;;;;;5493770;25;20013;-66
2024/04/18 03:30:57;;;;;;;32.00;30.20;;;;;;;;;;5486872;26;20019;-67
2024/04/18 03:33:42;;;;;;;32.10;30.15;;;;;;;;;;5489098;26;20431;-67
2024/04/18 03:36:28;;;;;;;32.63;30.92;;;;;;;;;;5495177;25;20001;-66
2024/04/18 03:39:13;;;;;;;32.00;30.30;;;;;;;;;;5479187;26;20086;-66
2024/04/18 03:41:59;;;;;;;34.08;32.28;;;;;;;;;;5490506;26;20054;-67
2024/04/18 03:44:45;;;;;;;31.65;29.95;;;;;;;;;;5495281;26;20009;-67
2024/04/18 03:47:32;;;;;;;34.95;33.15;;;;;;;;;;5464343;26;20006;-67
2024/04/18 03:50:18;;;;;;;35.22;32.80;;;;;;;;;;5491407;26;20021;-66
2024/04/18 03:53:03;;;;;;;31.20;29.58;;;;;;;;;;5485336;26;20485;-67
2024/04/18 03:55:49;;;;;;;31.67;29.95;;;;;;;;;;5498317;26;20525;-66
2024/04/18 03:58:34;;;;;;;33.33;31.58;;;;;;;;;;5496425;26;19998;-67
2024/04/18 04:01:20;;;;;;;33.50;31.70;;;;;;;;;;5497331;25;20502;-67
2024/04/18 04:04:06;;;;;;;32.30;30.35;;;;;;;;;;5490766;25;20010;-67
2024/04/18 04:06:52;;;;;;;32.67;30.77;;;;;;;;;;5498364;25;20044;-67
2024/04/18 04:09:37;;;;;;;32.75;31.05;;;;;;;;;;5501841;26;20065;-66
2024/04/18 04:12:23;;;;;;;31.17;29.55;;;;;;;;;;5474714;26;20023;-67
2024/04/18 04:15:09;;;;;;;31.20;29.58;;;;;;;;;;5493474;26;20086;-67
2024/04/18 04:17:54;;;;;;;35.03;33.20;;;;;;;;;;5496123;26;20094;-66
2024/04/18 04:20:41;;;;;;;34.05;32.20;;;;;;;;;;5495258;25;20017;-66
2024/04/18 04:23:26;;;;;;;33.17;31.38;;;;;;;;;;5461116;26;20052;-66
2024/04/18 04:26:12;;;;;;;33.80;32.00;;;;;;;;;;5493287;26;20280;-67
2024/04/18 04:29:01;;;;;;;34.35;32.25;;;;;;;;;;5473822;26;20715;-66
2024/04/18 04:31:47;;;;;;;36.20;34.25;;;;;;;;;;5493085;25;20001;-66
2024/04/18 04:34:32;;;;;;;35.08;33.17;;;;;;;;;;5468219;25;19998;-66
2024/04/18 04:37:19;;;;;;;33.70;31.90;;;;;;;;;;5502950;25;20020;-66
2024/04/18 04:40:06;;;;;;;31.38;29.70;;;;;;;;;;5492839;26;20784;-66
2024/04/18 04:42:51;;;;;;;33.70;31.92;;;;;;;;;;5493042;25;20698;-67
2024/04/18 04:45:37;;;;;;;32.90;31.20;;;;;;;;;;5492434;26;20001;-67
2024/04/18 04:48:22;;;;;;;37.58;35.55;;;;;;;;;;5494005;25;20070;-66
2024/04/18 04:51:08;;;;;;;35.10;33.28;;;;;;;;;;5493075;25;20691;-66
2024/04/18 04:53:54;;;;;;;35.58;33.67;;;;;;;;;;5497260;25;20021;-67
2024/04/18 04:56:39;;;;;;;33.75;31.95;;;;;;;;;;5496247;26;20009;-67
2024/04/18 04:59:25;;;;;;;36.45;34.53;;;;;;;;;;5497855;26;20013;-66
2024/04/18 05:02:11;;;;;;;36.25;34.35;;;;;;;;;;5495865;26;20001;-66
2024/04/18 05:04:56;;;;;;;31.42;29.77;;;;;;;;;;5492812;25;20057;-68
2024/04/18 05:07:42;;;;;;;35.55;33.65;;;;;;;;;;5492819;25;20028;-68
2024/04/18 05:10:27;;;;;;;34.55;32.65;;;;;;;;;;5498926;26;20548;-67
2024/04/18 05:13:14;;;;;;;36.13;34.20;;;;;;;;;;5497394;25;20022;-68
2024/04/18 05:16:00;;;;;;;35.70;33.70;;;;;;;;;;5494643;25;20455;-66
2024/04/18 05:18:45;;;;;;;35.47;33.50;;;;;;;;;;5498859;25;20074;-66
2024/04/18 05:21:31;;;;;;;34.42;32.58;;;;;;;;;;5505063;25;20695;-67
2024/04/18 05:24:16;;;;;;;34.63;32.75;;;;;;;;;;5499639;26;19998;-67
2024/04/18 05:27:02;;;;;;;34.95;33.10;;;;;;;;;;5470607;26;20013;-66
2024/04/18 05:32:52;;;;;;;36.58;34.58;;;;;;;;;;5497923;26;20010;-68
2024/04/18 05:35:37;;;;;;;34.78;32.88;;;;;;;;;;5497932;26;20106;-66
2024/04/18 05:38:23;;;;;;;36.33;34.42;;;;;;;;;;5498752;26;20073;-68
2024/04/18 05:41:09;;;;;;;34.55;32.72;;;;;;;;;;5497695;25;20009;-67
2024/04/18 05:43:54;;;;;;;34.25;32.40;;;;;;;;;;5501553;26;20335;-66
2024/04/18 05:46:40;;;;;;;35.63;33.72;;;;;;;;;;5500123;26;20032;-65
2024/04/18 05:49:26;;;;;;;34.47;32.67;;;;;;;;;;5495538;26;20002;-68
2024/04/18 05:52:11;;;;;;;36.75;34.85;;;;;;;;;;5465053;26;20028;-66
2024/04/18 05:54:57;;;;;;;35.05;33.20;;;;;;;;;;5498712;25;20006;-67
2024/04/18 05:57:42;;;;;;;34.47;32.53;;;;;;;;;;5499050;25;20710;-65
2024/04/18 06:00:28;;;;;;;38.75;36.75;;;;;;;;;;5494872;25;20049;-67
2024/04/18 06:03:14;;;;;;;41.88;39.47;;;;;;;;;;5497157;25;20001;-68
2024/04/18 06:06:01;;;;;;;32.35;30.65;;;;;;;;;;5501667;26;20013;-68
2024/04/18 06:08:46;;;;;;;32.92;31.23;;;;;;;;;;5498678;25;20319;-66
2024/04/18 06:11:35;;;;;;;40.00;37.80;;;;;;;;;;5506873;26;20018;-68
2024/04/18 06:14:21;;;;;;;37.20;35.28;;;;;;;;;;5496549;25;20021;-66
2024/04/18 06:17:06;;;;;;;45.22;42.83;;;;;;;;;;5492998;25;20005;-67
2024/04/18 06:19:52;;;;;;;37.97;36.05;;;;;;;;;;5508458;25;20075;-68
2024/04/18 06:22:38;;;;;;;36.92;34.92;;;;;;;;;;5508796;25;20668;-68
2024/04/18 06:25:24;;;;;;;26.33;24.92;;;;;;;;;;5503511;25;20024;-68
2024/04/18 06:28:13;;;;;;;27.15;25.65;;;;;;;;;;5510069;25;20020;-66
2024/04/18 06:30:59;;;;;;;29.98;28.35;;;;;;;;;;5510897;25;20006;-68
2024/04/18 06:33:45;;;;;;;26.88;25.42;;;;;;;;;;5507037;25;20426;-66
2024/04/18 06:36:31;;;;;;;29.27;27.67;;;;;;;;;;5502695;25;20009;-67
2024/04/18 06:39:17;;;;;;;30.45;28.80;;;;;;;;;;5504033;25;20020;-67
2024/04/18 06:42:03;;;;;;;35.78;33.88;;;;;;;;;;5510647;25;20080;-68
2024/04/18 06:44:48;;;;;;;24.63;23.33;;;;;;;;;;5507673;25;20009;-67
2024/04/18 06:47:34;;;;;;;24.88;23.58;;;;;;;;;;5503330;25;20017;-66
2024/04/18 06:50:20;;;;;;;21.48;20.27;;;;;;;;;;5507162;25;20040;-66
2024/04/18 06:53:05;;;;;;;28.95;27.40;;;;;;;;;;5504174;25;20001;-67
2024/04/18 06:55:51;;;;;;;29.30;27.70;;;;;;;;;;5506488;25;20056;-67
2024/04/18 06:58:37;;;;;;;24.25;22.88;;;;;;;;;;5509626;25;20046;-68
2024/04/18 07:01:22;;;;;;;21.75;20.55;;;;;;;;;;5464162;26;20309;-68
2024/04/18 07:04:08;;;;;;;24.98;23.60;;;;;;;;;;5492921;25;20729;-68
2024/04/18 07:06:54;;;;;;;26.02;24.65;;;;;;;;;;5493504;26;20583;-68
2024/04/18 07:09:40;;;;;;;26.27;24.88;;;;;;;;;;5495107;25;20006;-68
2024/04/18 07:12:25;;;;;;;30.17;28.55;;;;;;;;;;5494388;26;20090;-68
2024/04/18 07:15:11;;;;;;;22.58;21.27;;;;;;;;;;5494048;25;21168;-68
2024/04/18 07:17:57;;;;;;;29.40;27.60;;;;;;;;;;5472719;26;20024;-68
2024/04/18 07:20:43;;;;;;;23.08;21.83;;;;;;;;;;5494435;26;20337;-68
2024/04/18 07:23:28;;;;;;;40.28;38.17;;;;;;;;;;5494762;25;20495;-68
2024/04/18 07:26:14;;;;;;;26.02;24.38;;;;;;;;;;5490615;26;20052;-69
2024/04/18 07:29:00;;;;;;;23.10;21.83;;;;;;;;;;5495094;26;20002;-68
2024/04/18 07:31:46;;;;;;;23.08;21.77;;;;;;;;;;5495430;26;20021;-68
2024/04/18 07:34:31;;;;;;;25.63;24.17;;;;;;;;;;5496824;25;20014;-68
2024/04/18 07:37:17;;;;;;;37.28;35.38;;;;;;;;;;5478619;26;20082;-68
2024/04/18 07:40:11;;;;;;;27.63;26.17;;;;;;;;;;5498870;25;19998;-68
2024/04/18 07:42:56;;;;;;;38.58;36.58;;;;;;;;;;5497189;26;20016;-68
2024/04/18 07:45:42;;;;;;;39.08;37.05;;;;;;;;;;5468897;26;20006;-68
2024/04/18 07:48:28;;;;;;;40.38;38.30;;;;;;;;;;5494209;25;20091;-66
2024/04/18 07:51:13;;;;;;;45.15;42.80;;;;;;;;;;5503096;26;20020;-66
2024/04/18 07:54:00;;;;;;;34.35;32.55;;;;;;;;;;5469925;26;20052;-66
2024/04/18 07:56:46;;;;;;;27.30;25.88;;;;;;;;;;5496480;26;20120;-66
2024/04/18 07:59:32;;;;;;;40.15;38.05;;;;;;;;;;5497566;26;20037;-66
2024/04/18 08:02:18;;;;;;;32.38;30.58;;;;;;;;;;5493050;25;20017;-69
2024/04/18 08:05:04;;;;;;;27.48;25.98;;;;;;;;;;5499295;26;20005;-68
2024/04/18 08:07:50;;;;;;;32.75;30.98;;;;;;;;;;5497079;26;20023;-68
2024/04/18 08:10:36;;;;;;;28.38;26.90;;;;;;;;;;5492643;26;20059;-67
2024/04/18 08:13:22;;;;;;;24.90;23.60;;;;;;;;;;5472626;25;20013;-68
2024/04/18 08:16:07;;;;;;;24.08;22.77;;;;;;;;;;5473383;25;20721;-68
2024/04/18 08:18:53;;;;;;;23.67;22.38;;;;;;;;;;5448436;26;20137;-68
2024/04/18 08:21:39;;;;;;;22.67;21.38;;;;;;;;;;5502969;25;20018;-68
2024/04/18 08:24:27;;;;;;;20.58;19.48;;;;;;;;;;5508387;25;20005;-68
2024/04/18 08:27:13;;;;;;;39.20;37.17;;;;;;;;;;5499170;25;20050;-68
2024/04/18 08:29:58;;;;;;;34.38;32.47;;;;;;;;;;5481216;25;20013;-68
2024/04/18 08:32:44;;;;;;;27.67;26.20;;;;;;;;;;5502987;25;20014;-67
2024/04/18 08:35:30;;;;;;;26.70;25.23;;;;;;;;;;5507144;25;20028;-67
2024/04/18 08:38:15;;;;;;;34.28;32.47;;;;;;;;;;5483182;25;20014;-67
2024/04/18 08:41:10;;;;;;;40.30;38.22;;;;;;;;;;5503018;25;20032;-67
2024/04/18 08:43:57;;;;;;;22.60;21.40;;;;;;;;;;5490508;25;20009;-67
2024/04/18 08:46:44;;;;;;;32.08;30.38;;;;;;;;;;5482985;25;20002;-67
2024/04/18 08:49:31;;;;;;;27.83;26.23;;;;;;;;;;5497462;25;20096;-67
2024/04/18 08:52:18;;;;;;;47.50;44.70;;;;;;;;;;5483634;25;20472;-67
2024/04/18 08:55:04;;;;;;;44.63;42.33;;;;;;;;;;5503029;25;20032;-66
2024/04/18 08:57:55;;;;;;;46.45;44.05;;;;;;;;;;5503953;25;20020;-66
2024/04/18 09:00:45;;;;;;;47.17;44.53;;;;;;;;;;5500867;25;20006;-66
2024/04/18 09:03:31;;;;;;;51.05;48.45;;;;;;;;;;5483883;25;20040;-66
2024/04/18 09:06:17;;;;;;;42.47;40.13;;;;;;;;;;5475122;25;20006;-66
2024/04/18 09:09:08;;;;;;;49.30;46.80;;;;;;;;;;5506849;25;20025;-66
2024/04/18 09:11:56;;;;;;;50.47;47.88;;;;;;;;;;5506333;25;20424;-67
2024/04/18 09:14:41;;;;;;;43.20;40.95;;;;;;;;;;5499522;25;20009;-67
2024/04/18 09:17:29;;;;;;;59.85;56.78;;;;;;;;;;5501254;25;20041;-66
2024/04/18 09:20:15;;;;;;;40.08;37.97;;;;;;;;;;5507080;25;20463;-67
2024/04/18 09:23:01;;;;;;;49.10;46.60;;;;;;;;;;5506955;25;20454;-67
2024/04/18 09:25:52;;;;;;;60.03;56.92;;;;;;;;;;5504023;25;19998;-66
2024/04/18 09:28:41;;;;;;;52.97;50.28;;;;;;;;;;5501929;25;20019;-67
2024/04/18 09:31:27;;;;;;;43.83;41.55;;;;;;;;;;5503874;25;20013;-66
2024/04/18 09:34:17;;;;;;;54.55;51.78;;;;;;;;;;5493846;26;20006;-66
2024/04/18 09:37:05;;;;;;;63.00;59.80;;;;;;;;;;5491096;26;20074;-66
2024/04/18 09:39:55;;;;;;;52.95;50.25;;;;;;;;;;5493756;26;19998;-67
2024/04/18 09:42:52;;;;;;;50.20;47.40;;;;;;;;;;5494918;26;20015;-67
2024/04/18 09:46:03;;;;;;;33.53;31.73;;;;;;;;;;5494874;25;20021;-66
2024/04/18 09:48:51;;;;;;;36.65;34.75;;;;;;;;;;5491937;25;19997;-66
2024/04/18 09:51:37;;;;;;;39.05;37.00;;;;;;;;;;5488036;26;20006;-66
2024/04/18 09:54:23;;;;;;;36.10;34.28;;;;;;;;;;5491697;26;20446;-66
2024/04/18 09:57:10;;;;;;;54.85;51.90;;;;;;;;;;5496746;26;20066;-66
2024/04/18 09:59:57;;;;;;;80.72;76.63;;;;;;;;;;5465017;25;20014;-66
2024/04/18 10:02:46;;;;;;;61.63;58.53;;;;;;;;;;5495699;25;20746;-66
2024/04/18 10:05:36;;;;;;;58.85;55.85;;;;;;;;;;5490866;26;20017;-66
2024/04/18 10:08:28;;;;;;;66.93;63.55;;;;;;;;;;5473559;26;20002;-67
2024/04/18 10:11:14;;;;;;;84.78;80.43;;;;;;;;;;5495660;25;20001;-67
2024/04/18 10:14:06;;;;;;;70.28;66.78;;;;;;;;;;5488110;25;20017;-66
2024/04/18 10:16:51;;;;;;;45.20;42.70;;;;;;;;;;5507082;25;20425;-67
2024/04/18 10:19:41;;;;;;;60.25;57.22;;;;;;;;;;5495671;25;20015;-67
2024/04/18 10:22:31;;;;;;;43.13;40.90;;;;;;;;;;5516059;25;20413;-67
2024/04/18 10:25:19;;;;;;;39.55;37.45;;;;;;;;;;5507345;25;20165;-67
2024/04/18 10:28:16;;;;;;;47.45;45.00;;;;;;;;;;5507685;25;20891;-67
2024/04/18 10:31:05;;;;;;;63.42;60.17;;;;;;;;;;5498582;25;20015;-67
2024/04/18 10:33:52;;;;;;;47.50;45.10;;;;;;;;;;5487349;26;19997;-65
2024/04/18 10:36:38;;;;;;;63.38;60.17;;;;;;;;;;5490055;26;21793;-67
2024/04/18 10:39:30;;;;;;;63.55;60.35;;;;;;;;;;5490776;26;20065;-67
2024/04/18 10:42:20;;;;;;;71.72;68.13;;;;;;;;;;5488835;26;20021;-67
2024/04/18 10:45:06;;;;;;;54.55;51.78;;;;;;;;;;5478964;26;20005;-67
2024/04/18 10:47:52;;;;;;;62.70;59.55;;;;;;;;;;5500253;26;20040;-67
2024/04/18 10:50:39;;;;;;;45.67;43.35;;;;;;;;;;5494769;26;20001;-67
2024/04/18 10:53:24;;;;;;;41.10;39.00;;;;;;;;;;5494972;25;20042;-67
2024/04/18 10:56:10;;;;;;;52.15;49.45;;;;;;;;;;5498010;25;20055;-67
2024/04/18 10:58:56;;;;;;;45.25;42.95;;;;;;;;;;5496769;26;20013;-67
2024/04/18 11:01:42;;;;;;;74.05;70.35;;;;;;;;;;5477055;25;20066;-68
2024/04/18 11:04:28;;;;;;;42.67;40.50;;;;;;;;;;5501181;25;20002;-68
2024/04/18 11:07:14;;;;;;;36.63;34.72;;;;;;;;;;5499290;25;20693;-68
2024/04/18 11:09:59;;;;;;;37.67;35.67;;;;;;;;;;5492778;25;20006;-67
2024/04/18 11:12:45;;;;;;;44.00;41.70;;;;;;;;;;5489745;25;20044;-67
2024/04/18 11:15:31;;;;;;;78.82;74.82;;;;;;;;;;5492718;26;20022;-68
2024/04/18 11:18:17;;;;;;;101.32;96.35;;;;;;;;;;5493497;25;20002;-68
2024/04/18 11:21:03;;;;;;;48.28;45.72;;;;;;;;;;5500531;26;20311;-68
2024/04/18 11:23:52;;;;;;;54.83;51.92;;;;;;;;;;5498932;26;21302;-68
2024/04/18 11:26:37;;;;;;;42.58;40.38;;;;;;;;;;5491976;26;20006;-68
2024/04/18 11:29:27;;;;;;;66.57;63.08;;;;;;;;;;5493712;26;20013;-66
2024/04/18 11:32:12;;;;;;;47.42;45.03;;;;;;;;;;5500262;26;20013;-66
2024/04/18 11:34:58;;;;;;;45.50;43.15;;;;;;;;;;5479769;26;20005;-67
2024/04/18 11:37:45;;;;;;;51.10;48.50;;;;;;;;;;5498040;26;20504;-66
2024/04/18 11:40:31;;;;;;;47.75;45.33;;;;;;;;;;5489577;26;20502;-67
2024/04/18 11:43:16;;;;;;;114.28;108.60;;;;;;;;;;5491945;26;20020;-67
2024/04/18 11:46:02;;;;;;;102.93;97.80;;;;;;;;;;5492713;26;20001;-67
2024/04/18 11:48:47;;;;;;;80.10;76.13;;;;;;;;;;5497776;26;20016;-67
2024/04/18 11:51:33;;;;;;;100.95;95.95;;;;;;;;;;5498409;26;19999;-67
2024/04/18 11:54:19;;;;;;;74.45;70.65;;;;;;;;;;5499774;26;20009;-67
2024/04/18 11:57:04;;;;;;;106.32;101.05;;;;;;;;;;5496515;26;20914;-67
2024/04/18 11:59:50;;;;;;;125.63;119.43;;;;;;;;;;5500514;26;20425;-67
2024/04/18 12:02:36;;;;;;;110.93;105.43;;;;;;;;;;5492196;26;20009;-67
2024/04/18 12:05:24;;;;;;;67.03;63.63;;;;;;;;;;5495701;26;20016;-67
2024/04/18 12:08:10;;;;;;;105.45;100.25;;;;;;;;;;5497186;26;20017;-67
2024/04/18 12:10:55;;;;;;;109.13;103.68;;;;;;;;;;5495787;26;20081;-66
2024/04/18 12:13:41;;;;;;;62.42;59.28;;;;;;;;;;5490466;26;20075;-67
2024/04/18 12:16:27;;;;;;;51.78;49.15;;;;;;;;;;5497624;26;20005;-67
2024/04/18 12:19:12;;;;;;;53.95;51.22;;;;;;;;;;5493951;26;20379;-68
2024/04/18 12:21:58;;;;;;;61.00;57.88;;;;;;;;;;5490984;26;20009;-68
2024/04/18 12:24:43;;;;;;;47.95;45.53;;;;;;;;;;5492244;26;20071;-67
2024/04/18 12:27:29;;;;;;;42.15;39.95;;;;;;;;;;5498219;26;20265;-67
2024/04/18 12:30:15;;;;;;;33.80;32.08;;;;;;;;;;5466972;26;20002;-68
2024/04/18 12:33:00;;;;;;;39.65;37.63;;;;;;;;;;5493208;26;20009;-67
2024/04/18 12:35:47;;;;;;;32.90;31.13;;;;;;;;;;5495153;26;20009;-68
2024/04/18 12:38:32;;;;;;;49.30;46.80;;;;;;;;;;5497795;26;20416;-68
2024/04/18 12:41:18;;;;;;;42.53;40.33;;;;;;;;;;5472468;26;20012;-67
2024/04/18 12:44:04;;;;;;;106.32;101.05;;;;;;;;;;5495363;26;20005;-67
2024/04/18 12:46:49;;;;;;;117.18;111.32;;;;;;;;;;5496422;26;20001;-67
2024/04/18 12:49:35;;;;;;;74.65;70.93;;;;;;;;;;5497842;25;20016;-67
2024/04/18 12:52:21;;;;;;;82.50;78.40;;;;;;;;;;5488271;26;20030;-67
2024/04/18 12:55:06;;;;;;;83.72;79.55;;;;;;;;;;5493907;26;20002;-67
2024/04/18 12:57:52;;;;;;;73.65;69.93;;;;;;;;;;5494358;26;19998;-67
2024/04/18 13:00:37;;;;;;;98.03;93.18;;;;;;;;;;5489754;26;20015;-67
2024/04/18 13:03:23;;;;;;;92.68;88.10;;;;;;;;;;5494647;26;20006;-67
2024/04/18 13:06:09;;;;;;;72.55;68.95;;;;;;;;;;5493086;26;20001;-67
2024/04/18 13:08:56;;;;;;;102.78;97.68;;;;;;;;;;5497298;25;20083;-67
2024/04/18 13:11:42;;;;;;;126.60;120.35;;;;;;;;;;5475041;25;20013;-67
2024/04/18 13:14:27;;;;;;;125.82;119.60;;;;;;;;;;5496305;25;20014;-68
2024/04/18 13:17:13;;;;;;;89.53;85.07;;;;;;;;;;5492089;26;20030;-68
2024/04/18 13:20:01;;;;;;;79.88;75.93;;;;;;;;;;5498645;26;20025;-67
2024/04/18 13:22:47;;;;;;;72.10;68.50;;;;;;;;;;5493238;25;20014;-68
2024/04/18 13:25:33;;;;;;;85.90;81.63;;;;;;;;;;5494384;25;20013;-67
2024/04/18 13:28:18;;;;;;;161.80;153.75;;;;;;;;;;5495646;26;20013;-67
2024/04/18 13:31:06;;;;;;;94.03;89.40;;;;;;;;;;5496621;26;20005;-67
2024/04/18 13:33:53;;;;;;;140.38;133.40;;;;;;;;;;5496497;26;19997;-68
2024/04/18 13:36:39;;;;;;;108.05;102.25;;;;;;;;;;5489069;26;20006;-67
2024/04/18 13:39:24;;;;;;;151.63;144.10;;;;;;;;;;5497526;26;20073;-66
2024/04/18 13:42:10;;;;;;;80.80;76.80;;;;;;;;;;5493031;25;20009;-68
2024/04/18 13:44:56;;;;;;;85.28;81.03;;;;;;;;;;5493842;26;20006;-67
2024/04/18 13:47:42;;;;;;;70.43;66.93;;;;;;;;;;5498307;26;20001;-67
2024/04/18 13:50:29;;;;;;;86.82;82.53;;;;;;;;;;5499625;25;20001;-68
2024/04/18 13:53:15;;;;;;;65.50;62.20;;;;;;;;;;5492285;26;20017;-67
2024/04/18 13:56:01;;;;;;;54.67;51.92;;;;;;;;;;5505983;26;20022;-67
2024/04/18 13:58:47;;;;;;;56.58;53.78;;;;;;;;;;5501694;26;20010;-67
2024/04/18 14:01:32;;;;;;;39.83;37.75;;;;;;;;;;5499205;26;20024;-67
2024/04/18 14:04:18;;;;;;;36.85;34.95;;;;;;;;;;5498204;26;20020;-66
2024/04/18 14:07:04;;;;;;;37.20;35.25;;;;;;;;;;5497577;26;20895;-67
2024/04/18 14:09:49;;;;;;;40.47;38.40;;;;;;;;;;5492985;26;20001;-66
2024/04/18 14:12:35;;;;;;;48.47;46.00;;;;;;;;;;5498472;26;20015;-66
2024/04/18 14:15:36;;;;;;;59.30;56.30;;;;;;;;;;5474962;26;20073;-67
2024/04/18 14:19:04;;;;;;;111.80;106.25;;;;;;;;;;5489268;26;20001;-67
2024/04/18 14:21:30;;;;;;;123.32;117.22;;;;;;;;;;5500289;26;20013;-67
2024/04/18 14:24:16;;;;;;;115.97;110.28;;;;;;;;;;5498307;26;20009;-67
2024/04/18 14:27:01;;;;;;;119.88;113.97;;;;;;;;;;5493835;25;20029;-67
2024/04/18 14:29:48;;;;;;;145.55;138.32;;;;;;;;;;5473607;26;20506;-67
2024/04/18 14:32:33;;;;;;;149.98;142.48;;;;;;;;;;5478864;26;20189;-67
2024/04/18 14:35:19;;;;;;;136.15;129.30;;;;;;;;;;5495485;26;20014;-67
2024/04/18 14:38:05;;;;;;;147.43;140.10;;;;;;;;;;5501332;26;20005;-67
2024/04/18 14:40:52;;;;;;;137.63;130.80;;;;;;;;;;5501814;26;20001;-67
2024/04/18 14:43:37;;;;;;;121.20;115.22;;;;;;;;;;5499853;26;20048;-66
2024/04/18 14:46:24;;;;;;;130.38;123.93;;;;;;;;;;5495538;26;20002;-66
2024/04/18 14:49:10;;;;;;;97.63;92.82;;;;;;;;;;5498294;26;21367;-66
2024/04/18 14:51:56;;;;;;;71.68;68.07;;;;;;;;;;5501012;25;20012;-66
2024/04/18 14:54:42;;;;;;;121.00;114.95;;;;;;;;;;5498066;25;20107;-65
2024/04/18 14:57:27;;;;;;;130.25;123.78;;;;;;;;;;5469200;26;19997;-67
2024/04/18 15:00:13;;;;;;;93.00;88.40;;;;;;;;;;5496085;26;20704;-69
2024/04/18 15:02:58;;;;;;;92.72;88.10;;;;;;;;;;5490745;26;20013;-69
2024/04/18 15:05:57;;;;;;;126.72;120.50;;;;;;;;;;5501323;26;20018;-70
2024/04/18 15:08:42;;;;;;;132.85;126.28;;;;;;;;;;5499674;26;20022;-66
2024/04/18 15:11:29;;;;;;;120.45;114.50;;;;;;;;;;5493088;26;20013;-69
2024/04/18 15:14:15;;;;;;;67.32;63.97;;;;;;;;;;5497718;26;20010;-68
2024/04/18 15:17:01;;;;;;;75.28;71.53;;;;;;;;;;5503531;26;20016;-67
2024/04/18 15:19:47;;;;;;;62.22;59.13;;;;;;;;;;5499204;26;20001;-67
2024/04/18 15:22:33;;;;;;;73.28;69.63;;;;;;;;;;5497694;26;20442;-66
2024/04/18 15:25:19;;;;;;;70.35;66.85;;;;;;;;;;5495156;25;20084;-67
2024/04/18 15:28:05;;;;;;;87.63;83.32;;;;;;;;;;5498387;26;20020;-67
2024/04/18 15:30:50;;;;;;;86.68;82.38;;;;;;;;;;5500238;25;20098;-67
2024/04/18 15:33:36;;;;;;;42.28;40.10;;;;;;;;;;5495199;25;20074;-66
2024/04/18 15:36:21;;;;;;;42.03;39.92;;;;;;;;;;5488863;26;20006;-67
2024/04/18 15:39:07;;;;;;;43.10;40.90;;;;;;;;;;5497823;25;20010;-68
2024/04/18 15:41:53;;;;;;;53.90;50.90;;;;;;;;;;5493677;26;20050;-68
2024/04/18 15:44:38;;;;;;;56.67;53.80;;;;;;;;;;5501414;25;20009;-71
2024/04/18 15:47:26;;;;;;;52.97;50.25;;;;;;;;;;5495242;25;20028;-71
2024/04/18 15:50:12;;;;;;;39.60;37.58;;;;;;;;;;5470414;26;20001;-70
2024/04/18 15:52:57;;;;;;;51.10;48.50;;;;;;;;;;5488062;26;20782;-70
2024/04/18 15:55:43;;;;;;;66.90;63.58;;;;;;;;;;5489467;26;20012;-68
2024/04/18 15:58:28;;;;;;;66.38;63.03;;;;;;;;;;5488409;26;20515;-68
2024/04/18 16:01:14;;;;;;;50.13;47.60;;;;;;;;;;5498972;25;20541;-69
2024/04/18 16:04:00;;;;;;;41.78;39.58;;;;;;;;;;5490860;25;20001;-69
2024/04/18 16:06:45;;;;;;;49.28;46.78;;;;;;;;;;5475570;26;20020;-70